createdAt,value
2023-02-11T00:01:23.830Z,16.00
2023-02-11T00:03:54.438Z,19.30
2023-02-11T00:06:25.883Z,19.90
2023-02-11T00:08:56.610Z,18.20
2023-02-11T00:11:30.276Z,19.20
2023-02-11T00:14:02.850Z,19.30
2023-02-11T00:16:33.486Z,20.00
2023-02-11T00:19:05.579Z,21.70
2023-02-11T00:21:36.476Z,21.50
2023-02-11T00:24:07.582Z,20.00
2023-02-11T00:26:38.526Z,20.80
2023-02-11T00:29:12.352Z,20.10
2023-02-11T00:31:44.181Z,20.00
2023-02-11T00:34:14.613Z,16.50
2023-02-11T00:36:50.922Z,19.60
2023-02-11T00:39:21.823Z,23.00
2023-02-11T00:41:52.199Z,23.60
2023-02-11T00:44:22.556Z,21.60
2023-02-11T00:46:52.921Z,19.80
2023-02-11T00:49:23.257Z,20.00
2023-02-11T00:51:53.918Z,20.90
2023-02-11T00:54:24.278Z,21.60
2023-02-11T00:56:54.674Z,22.20
2023-02-11T00:59:25.014Z,20.90
2023-02-11T01:01:55.404Z,22.40
2023-02-11T01:04:25.782Z,21.10
2023-02-11T01:06:56.218Z,20.50
2023-02-11T01:11:58.027Z,24.00
2023-02-11T01:14:28.761Z,21.00
2023-02-11T01:16:59.103Z,23.00
2023-02-11T01:19:29.457Z,25.20
2023-02-11T01:21:59.909Z,25.90
2023-02-11T01:24:30.249Z,23.40
2023-02-11T01:27:00.668Z,23.10
2023-02-11T01:29:31.018Z,21.70
2023-02-11T01:32:02.312Z,24.30
2023-02-11T01:34:32.825Z,24.10
2023-02-11T01:37:03.389Z,22.50
2023-02-11T01:39:35.462Z,23.20
2023-02-11T01:42:06.776Z,27.00
2023-02-11T01:44:39.996Z,24.00
2023-02-11T01:47:10.552Z,22.70
2023-02-11T01:49:42.737Z,21.70
2023-02-11T01:52:15.603Z,23.50
2023-02-11T01:55:05.100Z,18.90
2023-02-11T01:57:38.395Z,19.70
2023-02-11T02:00:13.043Z,25.00
2023-02-11T02:02:50.140Z,27.10
2023-02-11T02:05:25.704Z,30.10
2023-02-11T02:08:00.046Z,28.20
2023-02-11T02:10:31.524Z,25.50
2023-02-11T02:13:01.996Z,25.80
2023-02-11T02:15:35.186Z,23.50
2023-02-11T02:18:14.216Z,23.00
2023-02-11T02:21:12.369Z,26.70
2023-02-11T02:24:01.574Z,28.10
2023-02-11T02:26:57.399Z,25.90
2023-02-11T02:30:25.226Z,24.20
2023-02-11T02:33:20.328Z,23.10
2023-02-11T02:35:57.687Z,24.20
2023-02-11T02:38:31.688Z,23.60
2023-02-11T02:41:04.382Z,27.20
2023-02-11T02:43:36.812Z,31.10
2023-02-11T02:46:15.135Z,29.90
2023-02-11T02:48:46.103Z,23.60
2023-02-11T02:51:30.813Z,26.50
2023-02-11T02:54:18.066Z,28.20
2023-02-11T02:56:51.357Z,26.30
2023-02-11T02:59:41.770Z,25.00
2023-02-11T03:02:17.287Z,28.30
2023-02-11T03:04:53.917Z,27.90
2023-02-11T03:07:28.889Z,27.40
2023-02-11T03:10:03.574Z,22.40
2023-02-11T03:12:35.573Z,25.50
2023-02-11T03:15:09.153Z,24.70
2023-02-11T03:17:42.005Z,26.90
2023-02-11T03:20:14.824Z,22.20
2023-02-11T03:22:50.805Z,26.70
2023-02-11T03:25:21.697Z,28.90
2023-02-11T03:27:55.400Z,28.10
2023-02-11T03:30:29.818Z,27.30
2023-02-11T03:33:02.311Z,26.00
2023-02-11T03:35:37.028Z,27.80
2023-02-11T03:38:10.400Z,28.30
2023-02-11T03:40:41.828Z,26.00
2023-02-11T03:43:17.114Z,16.60
2023-02-11T03:45:48.761Z,29.50
2023-02-11T03:48:23.840Z,26.20
2023-02-11T03:50:55.118Z,26.70
2023-02-11T03:53:25.552Z,25.10
2023-02-11T03:55:57.707Z,26.80
2023-02-11T03:58:28.343Z,27.70
2023-02-11T04:00:58.685Z,28.50
2023-02-11T04:03:29.031Z,31.50
2023-02-11T04:05:59.426Z,30.20
2023-02-11T04:08:29.998Z,26.40
2023-02-11T04:11:00.460Z,24.60
2023-02-11T04:13:30.793Z,26.60
2023-02-11T04:16:01.165Z,27.00
2023-02-11T04:18:31.514Z,25.30
2023-02-11T04:21:01.855Z,30.90
2023-02-11T04:23:32.148Z,29.50
2023-02-11T04:26:02.486Z,28.10
2023-02-11T04:28:32.896Z,25.70
2023-02-11T04:31:03.398Z,25.90
2023-02-11T04:33:33.869Z,26.70
2023-02-11T04:36:04.335Z,25.50
2023-02-11T04:38:34.626Z,27.20
2023-02-11T04:41:04.979Z,28.60
2023-02-11T04:43:35.255Z,30.30
2023-02-11T04:46:05.827Z,30.30
2023-02-11T04:48:36.363Z,27.30
2023-02-11T04:51:07.094Z,28.10
2023-02-11T04:53:37.400Z,25.80
2023-02-11T04:56:08.471Z,23.60
2023-02-11T04:58:38.880Z,21.60
2023-02-11T05:01:10.519Z,30.50
2023-02-11T05:03:41.216Z,25.20
2023-02-11T05:06:12.469Z,28.90
2023-02-11T05:08:42.971Z,26.60
2023-02-11T05:11:17.966Z,28.00
2023-02-11T05:13:48.558Z,24.90
2023-02-11T05:16:19.385Z,30.60
2023-02-11T05:18:52.577Z,31.00
2023-02-11T05:21:23.099Z,28.30
2023-02-11T05:23:53.522Z,24.20
2023-02-11T05:26:23.943Z,28.60
2023-02-11T05:28:54.232Z,29.60
2023-02-11T05:31:24.551Z,30.50
2023-02-11T05:33:54.901Z,31.50
2023-02-11T05:36:25.253Z,29.50
2023-02-11T05:38:55.539Z,29.10
2023-02-11T05:41:25.874Z,29.00
2023-02-11T05:43:56.166Z,28.30
2023-02-11T05:46:26.504Z,29.30
2023-02-11T05:48:57.376Z,30.20
2023-02-11T05:51:27.789Z,27.20
2023-02-11T05:53:58.809Z,29.70
2023-02-11T05:56:29.206Z,30.90
2023-02-11T05:59:00.868Z,29.30
2023-02-11T06:01:31.175Z,31.20
2023-02-11T06:04:01.603Z,32.30
2023-02-11T06:06:32.053Z,26.40
2023-02-11T06:09:02.450Z,26.60
2023-02-11T06:11:32.815Z,24.40
2023-02-11T06:14:03.500Z,28.30
2023-02-11T06:16:34.840Z,28.40
2023-02-11T06:19:05.269Z,31.80
2023-02-11T06:21:43.429Z,30.10
2023-02-11T06:24:14.328Z,27.30
2023-02-11T06:26:44.622Z,28.10
2023-02-11T06:29:14.937Z,25.80
2023-02-11T06:31:45.694Z,24.70
2023-02-11T06:34:16.137Z,26.00
2023-02-11T06:36:46.454Z,27.90
2023-02-11T06:39:16.990Z,30.90
2023-02-11T06:41:47.345Z,33.10
2023-02-11T06:44:17.650Z,29.00
2023-02-11T06:46:48.167Z,29.20
2023-02-11T06:49:18.599Z,26.00
2023-02-11T06:51:49.292Z,27.30
2023-02-11T06:54:19.808Z,26.00
2023-02-11T06:56:50.143Z,30.70
2023-02-11T06:59:21.198Z,32.50
2023-02-11T07:01:51.630Z,26.40
2023-02-11T07:04:22.652Z,28.60
2023-02-11T07:06:52.964Z,21.60
2023-02-11T07:09:23.320Z,16.90
2023-02-11T07:11:53.640Z,29.10
2023-02-11T07:14:23.927Z,32.80
2023-02-11T07:16:54.320Z,31.60
2023-02-11T07:19:24.706Z,26.00
2023-02-11T07:21:55.204Z,25.30
2023-02-11T07:24:25.829Z,22.90
2023-02-11T07:26:56.845Z,19.20
2023-02-11T07:29:27.351Z,28.60
2023-02-11T07:31:57.703Z,24.70
2023-02-11T07:34:28.080Z,29.60
2023-02-11T07:36:58.584Z,22.60
2023-02-11T07:39:29.451Z,26.70
2023-02-11T07:42:00.243Z,27.50
2023-02-11T07:44:30.898Z,25.20
2023-02-11T07:47:01.426Z,24.90
2023-02-11T07:49:32.230Z,26.30
2023-02-11T07:52:02.547Z,25.90
2023-02-11T07:54:32.892Z,24.70
2023-02-11T07:57:03.221Z,24.30
2023-02-11T07:59:33.692Z,28.50
2023-02-11T08:02:04.214Z,25.50
2023-02-11T08:04:35.161Z,26.10
2023-02-11T08:07:05.522Z,27.00
2023-02-11T08:09:36.478Z,27.20
2023-02-11T08:12:07.417Z,27.10
2023-02-11T08:14:37.933Z,28.10
2023-02-11T08:17:08.206Z,27.90
2023-02-11T08:19:39.592Z,25.20
2023-02-11T08:22:09.949Z,22.40
2023-02-11T08:24:41.099Z,23.60
2023-02-11T08:27:11.389Z,23.70
2023-02-11T08:29:41.803Z,26.00
2023-02-11T08:32:12.175Z,22.30
2023-02-11T08:34:44.165Z,25.20
2023-02-11T08:37:16.414Z,26.70
2023-02-11T08:39:49.153Z,25.30
2023-02-11T08:42:20.987Z,25.70
2023-02-11T08:44:52.084Z,25.20
2023-02-11T08:47:24.457Z,18.30
2023-02-11T08:49:56.190Z,24.50
2023-02-11T08:52:28.471Z,25.90
2023-02-11T08:55:00.180Z,26.90
2023-02-11T08:57:32.494Z,26.10
2023-02-11T09:00:05.287Z,25.90
2023-02-11T09:02:37.534Z,26.30
2023-02-11T09:05:10.339Z,25.30
2023-02-11T09:07:41.830Z,26.00
2023-02-11T09:10:14.209Z,26.60
2023-02-11T09:12:46.517Z,26.80
2023-02-11T09:15:18.233Z,25.90
2023-02-11T09:17:50.304Z,26.70
2023-02-11T09:20:23.322Z,26.30
2023-02-11T09:22:56.300Z,25.50
2023-02-11T09:28:01.320Z,23.10
2023-02-11T09:30:33.849Z,23.80
2023-02-11T09:33:05.262Z,25.90
2023-02-11T09:42:50.828Z,27.10
2023-02-11T09:45:23.470Z,25.60
2023-02-11T09:47:57.392Z,25.00
2023-02-11T09:50:31.351Z,26.20
2023-02-11T09:53:04.555Z,27.00
2023-02-11T09:55:38.018Z,25.30
2023-02-11T09:58:14.720Z,27.70
2023-02-11T10:00:48.341Z,25.70
2023-02-11T10:03:43.498Z,24.50
2023-02-11T10:06:23.188Z,26.80
2023-02-11T10:09:03.079Z,21.90
2023-02-11T10:11:38.138Z,27.30
2023-02-11T10:14:19.629Z,26.30
2023-02-11T10:17:00.000Z,26.90
2023-02-11T10:19:39.967Z,27.20
2023-02-11T10:22:16.605Z,22.80
2023-02-11T10:24:53.585Z,26.00
2023-02-11T10:27:28.549Z,25.20
2023-02-11T10:30:03.592Z,24.40
2023-02-11T10:32:39.688Z,26.10
2023-02-11T10:35:17.978Z,25.40
2023-02-11T10:37:48.632Z,25.90
2023-02-11T10:40:20.452Z,25.60
2023-02-11T10:42:55.406Z,23.50
2023-02-11T10:45:34.429Z,21.70
2023-02-11T10:48:07.082Z,25.50
2023-02-11T10:50:37.994Z,22.90
2023-02-11T10:53:20.942Z,22.60
2023-02-11T10:55:57.209Z,24.60
2023-02-11T10:58:29.444Z,23.80
2023-02-11T11:01:01.093Z,22.90
2023-02-11T11:03:35.228Z,24.50
2023-02-11T11:06:08.706Z,25.90
2023-02-11T11:08:44.876Z,24.70
2023-02-11T11:11:16.814Z,24.30
2023-02-11T11:13:59.122Z,24.30
2023-02-11T11:16:30.222Z,26.00
2023-02-11T11:19:21.296Z,23.80
2023-02-11T11:21:53.095Z,25.00
2023-02-11T11:24:27.656Z,24.30
2023-02-11T11:27:00.879Z,23.60
2023-02-11T11:29:34.068Z,23.60
2023-02-11T11:32:06.486Z,23.60
2023-02-11T11:34:40.482Z,24.40
2023-02-11T11:37:19.282Z,24.50
2023-02-11T11:39:56.924Z,24.90
2023-02-11T11:42:31.623Z,23.10
2023-02-11T11:45:04.619Z,23.50
2023-02-11T11:50:28.072Z,24.60
2023-02-11T11:53:04.136Z,23.50
2023-02-11T11:55:37.550Z,23.60
2023-02-11T11:58:08.187Z,23.40
2023-02-11T12:00:44.912Z,24.60
2023-02-11T12:04:01.353Z,20.70
2023-02-11T12:06:41.077Z,24.20
2023-02-11T12:09:20.695Z,25.50
2023-02-11T12:12:01.573Z,23.30
2023-02-11T12:14:39.740Z,23.70
2023-02-11T12:17:15.957Z,22.10
2023-02-11T12:19:57.763Z,24.10
2023-02-11T12:22:40.623Z,23.40
2023-02-11T12:25:27.161Z,23.60
2023-02-11T12:28:17.890Z,23.70
2023-02-11T12:30:58.377Z,23.00
2023-02-11T12:33:39.287Z,21.80
2023-02-11T12:36:13.731Z,22.00
2023-02-11T12:38:55.836Z,23.00
2023-02-11T12:41:54.971Z,22.70
2023-02-11T12:44:33.977Z,22.80
2023-02-11T12:47:15.535Z,24.50
2023-02-11T12:50:00.832Z,21.80
2023-02-11T12:52:43.543Z,21.30
2023-02-11T12:55:20.598Z,20.30
2023-02-11T12:57:52.532Z,21.30
2023-02-11T13:00:25.846Z,27.50
2023-02-11T13:03:03.240Z,22.00
2023-02-11T13:05:40.692Z,21.20
2023-02-11T13:08:14.250Z,22.20
2023-02-11T13:10:47.217Z,19.50
2023-02-11T13:15:53.318Z,20.70
2023-02-11T13:18:33.635Z,21.30
2023-02-11T13:21:20.797Z,22.10
2023-02-11T13:23:56.684Z,21.30
2023-02-11T13:26:30.845Z,20.50
2023-02-11T13:29:14.213Z,20.00
2023-02-11T13:31:44.713Z,20.60
2023-02-11T13:34:28.703Z,20.30
2023-02-11T13:36:59.645Z,21.80
2023-02-11T13:39:30.211Z,19.90
2023-02-11T13:42:06.412Z,19.30
2023-02-11T13:44:37.622Z,20.00
2023-02-11T13:47:08.346Z,19.90
2023-02-11T13:49:41.480Z,21.20
2023-02-11T13:52:25.905Z,18.70
2023-02-11T13:54:58.503Z,17.40
2023-02-11T13:57:37.924Z,19.10
2023-02-11T14:00:41.466Z,18.70
2023-02-11T14:03:53.752Z,19.40
2023-02-11T14:06:44.640Z,19.40
2023-02-11T14:09:39.315Z,21.30
2023-02-11T14:12:34.310Z,17.90
2023-02-11T14:15:24.086Z,18.40
2023-02-11T14:17:55.769Z,20.10
2023-02-11T14:20:38.163Z,19.50
2023-02-11T14:23:17.788Z,19.20
2023-02-11T14:25:56.784Z,19.80
2023-02-11T14:28:32.910Z,17.80
2023-02-11T14:31:07.334Z,18.10
2023-02-11T14:33:55.133Z,18.00
2023-02-11T14:36:46.408Z,19.30
2023-02-11T14:39:23.141Z,17.00
2023-02-11T14:41:53.580Z,19.30
2023-02-11T14:44:25.791Z,18.90
2023-02-11T14:46:57.040Z,17.60
2023-02-11T14:49:30.874Z,18.70
2023-02-11T14:52:07.653Z,18.60
2023-02-11T14:54:38.279Z,17.70
2023-02-11T14:57:17.041Z,17.30
2023-02-11T14:59:58.958Z,15.50
2023-02-11T15:02:33.646Z,17.10
2023-02-11T15:05:26.042Z,16.80
2023-02-11T15:07:58.130Z,17.60
2023-02-11T15:10:34.203Z,17.00
2023-02-11T15:13:05.150Z,16.80
2023-02-11T15:15:42.250Z,17.20
2023-02-11T15:18:21.368Z,16.30
2023-02-11T15:20:53.257Z,16.80
2023-02-11T15:23:26.137Z,17.00
2023-02-11T15:25:56.613Z,18.30
2023-02-11T15:28:30.408Z,17.20
2023-02-11T15:31:03.874Z,16.90
2023-02-11T15:33:34.929Z,17.80
2023-02-11T15:36:06.154Z,15.90
2023-02-11T15:38:36.576Z,15.90
2023-02-11T15:41:08.110Z,16.80
2023-02-11T15:43:46.445Z,16.10
2023-02-11T15:46:19.719Z,15.10
2023-02-11T15:48:51.975Z,15.10
2023-02-11T15:51:25.244Z,16.40
2023-02-11T15:53:58.832Z,15.60
2023-02-11T15:56:33.072Z,16.30
2023-02-11T15:59:14.017Z,15.30
2023-02-11T16:01:45.400Z,16.40
2023-02-11T16:04:20.702Z,14.80
2023-02-11T16:06:51.907Z,14.60
2023-02-11T16:09:34.321Z,14.10
2023-02-11T16:12:18.930Z,14.80
2023-02-11T16:14:49.293Z,14.60
2023-02-11T16:17:27.469Z,13.70
2023-02-11T16:19:58.482Z,13.30
2023-02-11T16:22:35.338Z,13.80
2023-02-11T16:25:07.169Z,12.90
2023-02-11T16:27:40.823Z,13.80
2023-02-11T16:30:27.711Z,14.30
2023-02-11T16:32:58.094Z,12.70
2023-02-11T16:35:28.666Z,13.10
2023-02-11T16:37:58.982Z,13.10
2023-02-11T16:40:29.501Z,12.20
2023-02-11T16:42:59.825Z,13.60
2023-02-11T16:45:30.290Z,12.50
2023-02-11T16:48:00.661Z,12.90
2023-02-11T16:50:31.063Z,12.90
2023-02-11T16:53:02.152Z,12.20
2023-02-11T16:55:32.738Z,13.20
2023-02-11T16:58:03.161Z,12.60
2023-02-11T17:00:33.516Z,12.70
2023-02-11T17:03:04.096Z,13.40
2023-02-11T17:05:49.327Z,13.30
2023-02-11T17:08:25.100Z,13.30
2023-02-11T17:10:55.563Z,12.80
2023-02-11T17:13:26.168Z,12.60
2023-02-11T17:15:56.873Z,11.80
2023-02-11T17:18:27.254Z,12.20
2023-02-11T17:20:57.593Z,13.20
2023-02-11T17:23:27.898Z,12.70
2023-02-11T17:25:59.313Z,12.80
2023-02-11T17:28:29.716Z,12.40
2023-02-11T17:31:00.217Z,12.90
2023-02-11T17:33:30.551Z,11.60
2023-02-11T17:36:00.842Z,12.80
2023-02-11T17:38:31.167Z,13.50
2023-02-11T17:41:02.465Z,11.00
2023-02-11T17:43:33.178Z,12.70
2023-02-11T17:46:03.596Z,13.00
2023-02-11T17:48:34.065Z,12.70
2023-02-11T17:51:04.636Z,13.00
2023-02-11T17:53:34.971Z,12.20
2023-02-11T17:56:07.230Z,12.60
2023-02-11T17:58:37.672Z,11.00
2023-02-11T18:01:08.353Z,12.70
2023-02-11T18:03:39.083Z,12.80
2023-02-11T18:06:10.067Z,9.90
2023-02-11T18:08:41.728Z,14.90
2023-02-11T18:11:14.985Z,14.00
2023-02-11T18:13:51.304Z,15.10
2023-02-11T18:16:21.655Z,15.10
2023-02-11T18:18:52.414Z,15.20
2023-02-11T18:21:28.676Z,17.00
2023-02-11T18:24:06.422Z,15.40
2023-02-11T18:26:38.408Z,15.80
2023-02-11T18:29:09.996Z,14.70
2023-02-11T18:31:42.092Z,14.50
2023-02-11T18:34:14.444Z,15.00
2023-02-11T18:36:45.405Z,14.60
2023-02-11T18:39:18.842Z,14.70
2023-02-11T18:41:50.927Z,15.00
2023-02-11T18:44:23.227Z,15.40
2023-02-11T18:46:54.264Z,14.80
2023-02-11T18:49:24.632Z,14.40
2023-02-11T18:51:55.262Z,15.20
2023-02-11T18:54:25.781Z,15.60
2023-02-11T18:56:56.102Z,14.90
2023-02-11T18:59:26.580Z,14.60
2023-02-11T19:01:57.916Z,16.30
2023-02-11T19:04:28.409Z,16.40
2023-02-11T19:07:03.081Z,15.70
2023-02-11T19:09:33.612Z,15.50
2023-02-11T19:12:04.629Z,16.00
2023-02-11T19:14:35.596Z,15.90
2023-02-11T19:17:07.560Z,14.10
2023-02-11T19:19:38.311Z,16.10
2023-02-11T19:22:10.573Z,14.80
2023-02-11T19:24:41.220Z,17.90
2023-02-11T19:27:12.354Z,15.90
2023-02-11T19:29:42.743Z,14.20
2023-02-11T19:32:13.488Z,15.40
2023-02-11T19:34:43.844Z,14.80
2023-02-11T19:37:14.810Z,14.70
2023-02-11T19:39:45.908Z,16.10
2023-02-11T19:42:16.259Z,15.10
2023-02-11T19:44:46.995Z,15.60
2023-02-11T19:47:17.843Z,15.40
2023-02-11T19:49:48.576Z,13.60
2023-02-11T19:52:18.931Z,14.60
2023-02-11T19:54:49.287Z,15.70
2023-02-11T19:57:19.625Z,13.70
2023-02-11T19:59:50.933Z,13.00
2023-02-11T20:02:21.288Z,14.10
2023-02-11T20:04:51.735Z,15.50
2023-02-11T20:07:22.124Z,15.00
2023-02-11T20:09:53.925Z,15.00
2023-02-11T20:12:24.544Z,15.90
2023-02-11T20:14:54.905Z,15.20
2023-02-11T20:17:25.354Z,17.80
2023-02-11T20:19:55.845Z,14.90
2023-02-11T20:22:26.304Z,15.20
2023-02-11T20:24:57.050Z,16.90
2023-02-11T20:27:29.189Z,15.90
2023-02-11T20:29:59.557Z,15.20
2023-02-11T20:32:32.817Z,16.80
2023-02-11T20:35:03.513Z,16.10
2023-02-11T20:37:33.992Z,16.40
2023-02-11T20:40:04.873Z,17.40
2023-02-11T20:42:35.603Z,17.40
2023-02-11T20:45:06.607Z,16.80
2023-02-11T20:47:37.070Z,18.60
2023-02-11T20:50:09.440Z,18.80
2023-02-11T20:52:40.116Z,19.00
2023-02-11T20:55:10.949Z,20.10
2023-02-11T20:57:41.373Z,19.30
2023-02-11T21:00:13.958Z,17.20
2023-02-11T21:02:44.589Z,16.10
2023-02-11T21:05:15.560Z,18.70
2023-02-11T21:07:46.317Z,18.70
2023-02-11T21:10:17.916Z,17.10
2023-02-11T21:12:49.919Z,18.40
2023-02-11T21:15:23.211Z,18.20
2023-02-11T21:17:53.755Z,18.40
2023-02-11T21:20:24.205Z,17.60
2023-02-11T21:22:54.585Z,16.50
2023-02-11T21:25:24.982Z,18.00
2023-02-11T21:27:55.596Z,18.90
2023-02-11T21:30:29.100Z,18.50
2023-02-11T21:33:03.172Z,18.40
2023-02-11T21:35:35.778Z,13.60
2023-02-11T21:38:07.110Z,15.60
2023-02-11T21:40:37.620Z,15.60
2023-02-11T21:43:08.335Z,17.30
2023-02-11T21:45:45.234Z,14.30
2023-02-11T21:48:16.745Z,15.80
2023-02-11T21:50:48.234Z,13.70
2023-02-11T21:53:18.757Z,15.30
2023-02-11T21:55:51.335Z,14.30
2023-02-11T21:58:21.821Z,14.10
2023-02-11T22:00:52.311Z,15.10
2023-02-11T22:03:22.726Z,15.00
2023-02-11T22:05:53.458Z,14.10
2023-02-11T22:08:24.081Z,13.30
2023-02-11T22:10:54.603Z,14.30
2023-02-11T22:13:24.937Z,12.60
2023-02-11T22:16:01.335Z,15.00
2023-02-11T22:18:32.429Z,14.50
2023-02-11T22:21:05.010Z,13.50
2023-02-11T22:23:36.244Z,14.90
2023-02-11T22:26:08.722Z,14.20
2023-02-11T22:28:40.571Z,15.30
2023-02-11T22:31:14.341Z,15.50
2023-02-11T22:33:45.059Z,13.90
2023-02-11T22:36:17.978Z,14.70
2023-02-11T22:38:48.597Z,15.30
2023-02-11T22:41:19.817Z,15.20
2023-02-11T22:43:50.652Z,14.60
2023-02-11T22:46:22.004Z,14.50
2023-02-11T22:48:52.666Z,14.30
2023-02-11T22:51:24.725Z,15.20
2023-02-11T22:53:56.925Z,15.40
2023-02-11T22:56:28.233Z,15.20
2023-02-11T22:59:00.866Z,15.00
2023-02-11T23:01:32.315Z,13.80
2023-02-11T23:04:03.897Z,14.60
2023-02-11T23:06:34.764Z,14.40
2023-02-11T23:09:06.474Z,14.40
2023-02-11T23:11:37.266Z,13.70
2023-02-11T23:14:08.574Z,12.10
2023-02-11T23:16:39.096Z,15.30
2023-02-11T23:19:12.326Z,14.40
2023-02-11T23:21:42.679Z,14.10
2023-02-11T23:24:15.432Z,13.60
2023-02-11T23:26:46.231Z,13.80
2023-02-11T23:29:16.623Z,14.80
2023-02-11T23:31:47.654Z,14.70
2023-02-11T23:34:20.331Z,14.70
2023-02-11T23:36:50.674Z,12.60
2023-02-11T23:39:21.066Z,20.10
2023-02-11T23:41:58.827Z,19.40
2023-02-11T23:44:29.780Z,19.20
2023-02-11T23:47:00.120Z,21.20
2023-02-11T23:49:30.463Z,18.50
2023-02-11T23:52:00.828Z,18.50
2023-02-11T23:54:31.247Z,19.60
2023-02-11T23:57:01.614Z,19.40
2023-02-11T23:59:31.955Z,20.00
